Decoded Metar for EGJJ (JERSEY in ENGLAND) (IATA:JER) | Meteo·Mobile Aviation Weather
aviador You're here:

EGJJ Decoded Metar

JERSEY in ENGLAND
Report Time2019-05-21 16:50:00
UTC Time2019-05-21 17:11:25
Flight Rules vfr VFR
Wind010° at 07 kt
W.Decomp.*RWY 09: 1.3 kt HW 6.9 kt LCW
Visibility9999 m
Phenomena:N/A
Clouds:Few 035 Hf
Expected CloudBase > 3,600 ft AGL from Temp-Dew spread
CeilingNone
Temp16°C (ISA +2)
Dew Point07°C (55% RH)
AAT12.8°C
QNH1020 hPa
Density Alt361 ft
Elevation276 ft
Report Wrong Elevation
Raw Report
METAR EGJJ 211650Z 01007KT 330V040 9999 FEW035 16/07 Q1020=

Extra information for EGJJ:More info

Metar Taf Metar & Taf Last 4 Metars F.Rules Stats Wind Profile Meteogram Temp Stats Airport Information Weather charts Add Link Nearby VenuesMetar ALERT Operation Metar Decoded Social comments